Time;durP1;ratioP1;P1;durP2;ratioP2;P2;SDS_P1;SDS_P2;PMS_P1;PMS_P2;Temp;Humidity;BMP_temperature;BMP_pressure;BME280_temperature;BME280_humidity;BME280_pressure;Samples;Min_cycle;Max_cycle;Signal;HPM_P1;HPM_P2
2023/08/10 00:00:12;;;;;;;6.18;0.98;;;14.30;99.90;;;;;;4945519;28;20032;-73
2023/08/10 00:02:39;;;;;;;6.13;0.77;;;14.30;99.90;;;;;;4944509;29;20047;-74
2023/08/10 00:05:05;;;;;;;4.57;0.70;;;14.30;99.90;;;;;;4960498;28;20043;-74
2023/08/10 00:07:32;;;;;;;4.55;0.98;;;14.40;99.90;;;;;;4946652;28;20526;-74
2023/08/10 00:09:57;;;;;;;4.20;1.05;;;14.30;99.90;;;;;;4929593;28;20051;-74
2023/08/10 00:12:23;;;;;;;8.02;1.52;;;14.30;99.90;;;;;;4937521;29;20035;-74
2023/08/10 00:14:49;;;;;;;4.55;0.90;;;14.30;99.90;;;;;;4947306;29;20162;-73
2023/08/10 00:17:16;;;;;;;3.17;0.70;;;14.30;99.90;;;;;;4930384;29;20043;-74
2023/08/10 00:19:42;;;;;;;5.55;0.90;;;14.30;99.90;;;;;;4946783;28;20513;-74
2023/08/10 00:22:08;;;;;;;3.25;0.75;;;14.30;99.90;;;;;;4931844;29;20050;-73
2023/08/10 00:24:33;;;;;;;6.55;1.00;;;14.30;99.90;;;;;;4947489;29;20039;-73
2023/08/10 00:26:59;;;;;;;4.68;0.90;;;14.30;99.90;;;;;;4947862;29;20047;-74
2023/08/10 00:29:24;;;;;;;4.25;0.68;;;14.30;99.90;;;;;;4947062;28;20039;-74
2023/08/10 00:31:50;;;;;;;6.10;1.33;;;14.30;99.90;;;;;;4928520;29;20051;-74
2023/08/10 00:34:16;;;;;;;5.95;0.90;;;14.30;99.90;;;;;;4928114;28;20071;-74
2023/08/10 00:36:41;;;;;;;4.78;0.95;;;14.30;99.90;;;;;;4947038;28;20346;-74
2023/08/10 00:39:07;;;;;;;5.95;1.15;;;14.30;99.90;;;;;;4946725;28;20045;-73
2023/08/10 00:41:33;;;;;;;5.60;0.85;;;14.30;99.90;;;;;;4962319;28;20065;-74
2023/08/10 00:43:59;;;;;;;4.65;1.02;;;14.30;99.90;;;;;;4946083;28;20043;-73
2023/08/10 00:46:26;;;;;;;6.97;1.63;;;14.30;99.90;;;;;;4910591;29;20102;-74
2023/08/10 00:48:52;;;;;;;8.55;1.20;;;14.30;99.90;;;;;;4948283;28;20048;-74
2023/08/10 00:51:18;;;;;;;5.50;1.25;;;14.30;99.90;;;;;;4946537;28;20608;-74
2023/08/10 00:53:44;;;;;;;5.75;1.55;;;14.20;99.90;;;;;;4947277;28;20035;-74
2023/08/10 00:56:11;;;;;;;7.00;1.30;;;14.20;99.90;;;;;;4935827;29;20498;-73
2023/08/10 00:58:37;;;;;;;2.85;0.95;;;14.20;99.90;;;;;;4947589;28;20398;-75
2023/08/10 01:01:04;;;;;;;4.90;0.90;;;14.20;99.90;;;;;;4948771;28;20118;-74
2023/08/10 01:03:30;;;;;;;5.97;0.77;;;14.10;99.90;;;;;;4927838;29;20044;-74
2023/08/10 01:06:12;;;;;;;5.10;1.40;;;14.10;99.90;;;;;;4946790;28;20039;-74
2023/08/10 01:09:16;;;;;;;3.17;0.75;;;14.10;99.90;;;;;;4947179;29;20043;-74
2023/08/10 01:12:17;;;;;;;6.28;1.02;;;14.10;99.90;;;;;;4944908;28;20475;-74
2023/08/10 01:14:55;;;;;;;4.72;0.80;;;14.20;99.90;;;;;;4898852;28;20062;-73
2023/08/10 01:17:29;;;;;;;4.90;0.85;;;14.20;99.90;;;;;;4959940;28;20079;-73
2023/08/10 01:19:59;;;;;;;3.00;0.80;;;14.10;99.90;;;;;;4944706;28;20095;-73
2023/08/10 01:22:41;;;;;;;4.38;1.05;;;14.10;99.90;;;;;;4945232;28;20032;-74
2023/08/10 01:25:09;;;;;;;7.55;1.38;;;14.10;99.90;;;;;;4943159;28;20043;-74
2023/08/10 01:27:36;;;;;;;4.38;1.45;;;14.10;99.90;;;;;;4926101;29;20043;-73
2023/08/10 01:30:03;;;;;;;4.15;1.13;;;14.00;99.90;;;;;;4946221;28;20102;-73
2023/08/10 01:32:30;;;;;;;5.10;1.00;;;14.00;99.90;;;;;;4919262;29;20050;-73
2023/08/10 01:34:57;;;;;;;3.65;0.90;;;14.00;99.90;;;;;;4944718;28;20070;-73
2023/08/10 01:37:23;;;;;;;5.32;1.02;;;13.90;99.90;;;;;;4960416;28;20495;-73
2023/08/10 01:39:50;;;;;;;5.97;0.80;;;13.80;99.90;;;;;;4949997;28;20091;-73
2023/08/10 01:42:15;;;;;;;9.75;1.20;;;13.80;99.90;;;;;;4924864;29;20103;-74
2023/08/10 01:44:41;;;;;;;3.45;1.15;;;13.80;99.90;;;;;;4943371;28;20036;-74
2023/08/10 01:47:19;;;;;;;2.58;0.73;;;13.80;99.90;;;;;;4961814;28;20042;-74
2023/08/10 01:49:50;;;;;;;5.15;1.13;;;13.70;99.90;;;;;;4944959;28;20039;-74
2023/08/10 01:52:19;;;;;;;3.67;0.75;;;13.70;99.90;;;;;;4961580;28;20293;-74
2023/08/10 01:54:44;;;;;;;5.03;1.10;;;13.70;99.90;;;;;;4944377;28;20047;-74
2023/08/10 01:57:10;;;;;;;4.97;0.90;;;13.60;99.90;;;;;;4926569;29;20042;-74
2023/08/10 01:59:36;;;;;;;6.30;1.80;;;13.60;99.90;;;;;;4945050;28;20024;-74
2023/08/10 02:02:01;;;;;;;4.35;1.05;;;13.60;99.90;;;;;;4945658;28;20247;-73
2023/08/10 02:04:27;;;;;;;5.63;0.98;;;13.60;99.90;;;;;;4941916;28;20079;-73
2023/08/10 02:06:53;;;;;;;5.03;1.00;;;13.50;99.90;;;;;;4924979;28;20387;-74
2023/08/10 02:09:18;;;;;;;5.53;1.13;;;13.50;99.90;;;;;;4958319;28;20042;-74
2023/08/10 02:11:44;;;;;;;6.97;1.85;;;13.50;99.90;;;;;;4927661;28;20046;-74
2023/08/10 02:14:10;;;;;;;7.47;2.08;;;13.50;99.90;;;;;;4923620;29;20062;-73
2023/08/10 02:16:35;;;;;;;6.97;2.35;;;13.40;99.90;;;;;;4926679;29;20049;-73
2023/08/10 02:19:01;;;;;;;3.85;1.05;;;13.40;99.90;;;;;;4927918;29;20035;-74
2023/08/10 02:21:27;;;;;;;4.25;1.85;;;13.50;99.90;;;;;;4942688;28;20035;-74
2023/08/10 02:23:53;;;;;;;9.23;2.03;;;13.40;99.90;;;;;;4928140;28;20087;-74
2023/08/10 02:26:18;;;;;;;4.78;1.42;;;13.40;99.90;;;;;;4929291;28;20058;-73
2023/08/10 02:28:44;;;;;;;6.60;1.90;;;13.40;99.90;;;;;;4944460;28;20063;-74
2023/08/10 02:31:10;;;;;;;3.42;1.10;;;13.40;99.90;;;;;;4947178;28;20039;-73
2023/08/10 02:33:35;;;;;;;4.85;1.45;;;13.40;99.90;;;;;;4941469;29;20059;-74
2023/08/10 02:36:01;;;;;;;9.40;1.65;;;13.40;99.90;;;;;;4946587;28;20039;-74
2023/08/10 02:38:26;;;;;;;4.47;1.20;;;13.40;99.90;;;;;;4926640;29;20391;-75
2023/08/10 02:40:52;;;;;;;11.38;2.17;;;13.40;99.90;;;;;;4925841;29;20056;-74
2023/08/10 02:43:18;;;;;;;5.75;1.65;;;13.40;99.90;;;;;;4929259;28;20048;-74
2023/08/10 02:45:44;;;;;;;3.35;1.48;;;13.40;99.90;;;;;;4926483;29;20046;-74
2023/08/10 02:48:09;;;;;;;5.40;1.77;;;13.40;99.90;;;;;;4930351;28;20039;-74
2023/08/10 02:50:35;;;;;;;9.07;1.67;;;13.40;99.90;;;;;;4945370;28;20085;-74
2023/08/10 02:53:01;;;;;;;4.32;1.42;;;13.50;99.90;;;;;;4928424;29;20103;-73
2023/08/10 02:55:28;;;;;;;5.50;1.77;;;13.50;99.90;;;;;;4943447;28;20051;-73
2023/08/10 02:57:53;;;;;;;6.78;1.90;;;13.50;99.90;;;;;;4943845;28;20054;-74
2023/08/10 03:00:20;;;;;;;7.53;2.10;;;13.50;99.90;;;;;;4944021;28;20032;-74
2023/08/10 03:02:50;;;;;;;4.53;1.80;;;13.50;99.90;;;;;;4945056;28;20106;-75
2023/08/10 03:05:18;;;;;;;5.97;1.65;;;13.50;99.90;;;;;;4941852;28;20054;-74
2023/08/10 03:07:45;;;;;;;6.75;1.85;;;13.50;99.90;;;;;;4942647;28;20077;-73
2023/08/10 03:10:11;;;;;;;2.47;1.13;;;13.50;99.90;;;;;;4945451;28;20031;-73
2023/08/10 03:12:37;;;;;;;6.05;1.70;;;13.50;99.90;;;;;;4943795;28;20423;-73
2023/08/10 03:15:05;;;;;;;4.47;2.20;;;13.50;99.90;;;;;;4924032;29;20083;-73
2023/08/10 03:17:31;;;;;;;4.22;1.50;;;13.50;99.90;;;;;;4933765;28;20147;-74
2023/08/10 03:19:56;;;;;;;7.25;1.85;;;13.60;99.90;;;;;;4943888;29;20170;-73
2023/08/10 03:22:25;;;;;;;4.97;2.20;;;13.60;99.90;;;;;;4925986;28;20051;-74
2023/08/10 03:24:52;;;;;;;5.50;1.70;;;13.60;99.90;;;;;;4926967;29;20133;-73
2023/08/10 03:27:17;;;;;;;3.67;1.40;;;13.60;99.90;;;;;;4927597;29;20050;-74
2023/08/10 03:29:43;;;;;;;3.90;2.10;;;13.60;99.90;;;;;;4943176;28;20035;-74
2023/08/10 03:32:09;;;;;;;4.32;1.90;;;13.60;99.90;;;;;;4943532;28;20080;-74
2023/08/10 03:34:34;;;;;;;4.80;2.10;;;13.60;99.90;;;;;;4946071;28;20402;-75
2023/08/10 03:37:00;;;;;;;4.18;1.80;;;13.60;99.90;;;;;;4925884;28;20043;-74
2023/08/10 03:39:25;;;;;;;4.28;1.85;;;13.70;99.90;;;;;;4928963;29;20035;-74
2023/08/10 03:41:51;;;;;;;4.03;1.75;;;13.60;99.90;;;;;;4932122;28;20081;-74
2023/08/10 03:44:16;;;;;;;6.22;1.90;;;13.70;99.90;;;;;;4946960;28;20581;-73
2023/08/10 03:46:42;;;;;;;5.55;2.20;;;13.70;99.90;;;;;;4945990;28;20123;-73
2023/08/10 03:49:08;;;;;;;4.07;1.50;;;13.70;99.90;;;;;;4951001;28;20082;-74
2023/08/10 03:51:33;;;;;;;5.68;1.63;;;13.70;99.90;;;;;;4931629;28;20051;-73
2023/08/10 03:53:59;;;;;;;12.35;2.00;;;13.70;99.90;;;;;;4949996;28;20043;-73
2023/08/10 03:56:24;;;;;;;5.78;2.17;;;13.70;99.90;;;;;;4920979;29;20063;-73
2023/08/10 03:58:50;;;;;;;3.78;1.75;;;13.70;99.90;;;;;;4946130;28;20042;-73
2023/08/10 04:01:15;;;;;;;5.43;1.80;;;13.70;99.90;;;;;;4946334;28;20053;-74
2023/08/10 04:03:41;;;;;;;3.30;1.50;;;13.80;99.90;;;;;;4948751;29;20050;-74
2023/08/10 04:06:07;;;;;;;5.32;1.83;;;13.70;99.90;;;;;;4930697;28;20043;-74
2023/08/10 04:08:32;;;;;;;6.18;1.70;;;13.80;99.90;;;;;;4948239;29;20067;-73
2023/08/10 04:10:58;;;;;;;5.10;1.20;;;13.80;99.90;;;;;;4937061;29;20031;-74
2023/08/10 04:13:23;;;;;;;9.05;2.08;;;13.80;99.90;;;;;;4943455;28;20043;-74
2023/08/10 04:15:49;;;;;;;6.82;1.95;;;13.80;99.90;;;;;;4931291;29;20052;-73
2023/08/10 04:18:15;;;;;;;12.45;2.38;;;13.80;99.90;;;;;;4948873;28;20039;-74
2023/08/10 04:20:40;;;;;;;5.20;1.92;;;13.80;99.90;;;;;;4946421;28;20046;-74
2023/08/10 04:23:06;;;;;;;4.97;2.10;;;13.80;99.90;;;;;;4947173;28;20043;-74
2023/08/10 04:25:31;;;;;;;5.47;2.10;;;13.80;99.90;;;;;;4946007;28;20399;-73
2023/08/10 04:27:57;;;;;;;5.00;2.13;;;13.80;99.90;;;;;;4928638;29;20111;-74
2023/08/10 04:30:28;;;;;;;5.15;1.70;;;13.90;99.90;;;;;;4946885;28;20126;-73
2023/08/10 04:32:54;;;;;;;3.80;2.13;;;14.00;99.90;;;;;;4948478;28;20047;-73
2023/08/10 04:35:20;;;;;;;7.03;1.75;;;13.90;99.90;;;;;;4951906;28;20043;-74
2023/08/10 04:37:48;;;;;;;5.70;1.90;;;13.90;99.90;;;;;;4947605;28;20039;-74
2023/08/10 04:40:14;;;;;;;6.10;1.70;;;13.90;99.90;;;;;;4926829;29;20047;-74
2023/08/10 04:42:40;;;;;;;5.35;1.90;;;13.90;99.90;;;;;;4946547;28;20039;-74
2023/08/10 04:45:07;;;;;;;3.53;2.13;;;13.90;99.90;;;;;;4945808;28;20047;-73
2023/08/10 04:47:32;;;;;;;4.88;2.20;;;14.00;99.90;;;;;;4948352;29;20047;-74
2023/08/10 04:49:58;;;;;;;7.00;2.10;;;14.00;99.90;;;;;;4929853;29;20051;-74
2023/08/10 04:52:24;;;;;;;5.22;1.80;;;14.00;99.90;;;;;;4947410;28;20042;-74
2023/08/10 04:54:49;;;;;;;4.43;1.70;;;14.10;99.90;;;;;;4947757;28;20230;-74
2023/08/10 04:57:15;;;;;;;6.15;1.83;;;14.00;99.90;;;;;;4928831;28;20122;-74
2023/08/10 04:59:41;;;;;;;5.50;1.85;;;14.10;99.90;;;;;;4944896;28;20034;-74
2023/08/10 05:02:06;;;;;;;4.10;1.80;;;14.10;99.90;;;;;;4936897;29;20118;-73
2023/08/10 05:04:32;;;;;;;4.97;1.48;;;14.20;99.90;;;;;;4943745;28;20039;-75
2023/08/10 05:06:57;;;;;;;10.68;1.85;;;14.30;99.90;;;;;;4920224;29;20051;-74
2023/08/10 05:09:23;;;;;;;7.75;1.73;;;14.20;99.90;;;;;;4963039;28;20079;-74
2023/08/10 05:11:48;;;;;;;4.93;1.73;;;14.20;99.90;;;;;;4930776;29;20054;-74
2023/08/10 05:14:14;;;;;;;5.65;1.80;;;14.30;99.90;;;;;;4928991;29;20050;-74
2023/08/10 05:16:40;;;;;;;5.57;2.40;;;14.30;99.90;;;;;;4948720;28;20139;-74
2023/08/10 05:19:05;;;;;;;5.75;2.10;;;14.30;99.90;;;;;;4928964;29;20418;-74
2023/08/10 05:21:31;;;;;;;5.07;1.58;;;14.40;99.90;;;;;;4935249;28;20122;-74
2023/08/10 05:23:57;;;;;;;2.97;1.52;;;14.40;99.90;;;;;;4946350;28;20475;-74
2023/08/10 05:26:22;;;;;;;5.85;1.80;;;14.40;99.90;;;;;;4942176;28;20435;-74
2023/08/10 05:28:48;;;;;;;4.35;2.08;;;14.50;99.90;;;;;;4928970;29;20055;-74
2023/08/10 05:31:15;;;;;;;6.43;1.70;;;14.50;99.90;;;;;;4948254;28;20070;-74
2023/08/10 05:33:41;;;;;;;3.55;1.35;;;14.60;99.90;;;;;;4946207;28;20443;-75
2023/08/10 05:36:07;;;;;;;5.20;1.50;;;14.60;99.90;;;;;;4946097;28;20036;-74
2023/08/10 05:38:33;;;;;;;9.15;1.65;;;14.60;99.90;;;;;;4944509;28;20046;-74
2023/08/10 05:40:58;;;;;;;4.35;1.58;;;14.70;99.90;;;;;;4944814;28;20501;-74
2023/08/10 05:43:24;;;;;;;4.57;1.25;;;14.80;99.90;;;;;;4927639;29;20474;-74
2023/08/10 05:45:49;;;;;;;7.03;1.52;;;14.90;99.90;;;;;;4946132;28;20036;-75
2023/08/10 05:48:15;;;;;;;5.18;1.27;;;15.10;99.90;;;;;;4927745;29;20046;-74
2023/08/10 05:50:41;;;;;;;4.50;1.63;;;15.80;99.90;;;;;;4926382;28;20047;-74
2023/08/10 05:53:07;;;;;;;3.25;1.25;;;17.40;99.90;;;;;;4935875;29;20501;-74
2023/08/10 05:55:34;;;;;;;6.60;1.67;;;18.50;99.90;;;;;;4947948;28;20061;-75
2023/08/10 05:58:00;;;;;;;7.95;1.38;;;19.00;99.90;;;;;;4945087;28;20442;-74
2023/08/10 06:00:27;;;;;;;4.90;1.17;;;19.30;99.90;;;;;;4945987;29;20039;-74
2023/08/10 06:02:52;;;;;;;5.90;1.30;;;19.50;99.90;;;;;;4926876;29;20051;-75
2023/08/10 06:05:18;;;;;;;4.63;1.58;;;19.40;99.90;;;;;;4958398;28;20055;-75
2023/08/10 06:07:47;;;;;;;7.28;1.27;;;19.10;99.90;;;;;;4940843;28;20138;-75
2023/08/10 06:10:16;;;;;;;6.38;1.10;;;18.80;99.90;;;;;;4929723;28;20050;-75
2023/08/10 06:12:43;;;;;;;5.97;1.00;;;18.50;99.90;;;;;;4929162;29;20048;-75
2023/08/10 06:15:10;;;;;;;2.63;0.77;;;18.40;99.90;;;;;;4942719;28;20044;-76
2023/08/10 06:17:37;;;;;;;4.10;1.23;;;18.20;99.90;;;;;;4959967;28;20119;-75
2023/08/10 06:20:16;;;;;;;3.85;1.10;;;18.20;99.90;;;;;;4930087;28;20087;-75
2023/08/10 06:22:42;;;;;;;10.98;1.35;;;18.10;99.90;;;;;;4945015;28;20035;-75
2023/08/10 06:25:09;;;;;;;7.80;1.85;;;18.00;99.90;;;;;;4924507;29;20449;-75
2023/08/10 06:27:35;;;;;;;3.13;1.38;;;18.10;99.90;;;;;;4943659;28;20071;-75
2023/08/10 06:30:02;;;;;;;5.47;1.23;;;18.20;99.90;;;;;;4956385;28;20050;-76
2023/08/10 06:32:28;;;;;;;6.05;1.60;;;18.30;99.90;;;;;;4945033;28;20087;-75
2023/08/10 06:34:56;;;;;;;9.13;1.20;;;18.50;99.90;;;;;;4946466;29;20073;-75
2023/08/10 06:37:22;;;;;;;5.03;1.95;;;18.70;99.90;;;;;;4931207;29;20043;-75
2023/08/10 06:39:48;;;;;;;4.97;1.25;;;18.80;99.90;;;;;;4911158;28;20052;-75
2023/08/10 06:42:15;;;;;;;9.93;1.63;;;18.90;99.90;;;;;;4945229;28;20039;-75
2023/08/10 06:44:40;;;;;;;3.28;1.23;;;18.80;99.90;;;;;;4934784;29;20047;-75
2023/08/10 06:47:06;;;;;;;3.28;0.80;;;18.90;99.90;;;;;;4944092;28;20397;-75
2023/08/10 06:49:31;;;;;;;6.70;1.67;;;19.00;99.90;;;;;;4947132;28;20497;-75
2023/08/10 06:51:57;;;;;;;6.13;0.80;;;19.00;99.90;;;;;;4946592;28;20086;-75
2023/08/10 06:54:24;;;;;;;5.97;1.20;;;19.10;99.90;;;;;;4944024;28;20078;-75
2023/08/10 06:56:49;;;;;;;7.50;0.90;;;19.30;99.90;;;;;;4926168;28;20054;-76
2023/08/10 06:59:15;;;;;;;3.08;0.70;;;19.60;99.90;;;;;;4929358;29;20039;-75
2023/08/10 07:01:41;;;;;;;6.15;0.90;;;20.00;99.90;;;;;;4948171;28;20043;-76
2023/08/10 07:04:07;;;;;;;3.63;0.60;;;20.40;99.90;;;;;;4927810;28;20098;-77
2023/08/10 07:06:33;;;;;;;6.82;0.80;;;20.80;99.90;;;;;;4955234;28;20047;-75
2023/08/10 07:08:58;;;;;;;2.83;0.80;;;21.00;99.90;;;;;;4944494;28;20086;-76
2023/08/10 07:11:24;;;;;;;4.80;1.00;;;21.20;99.90;;;;;;4944222;28;20054;-76
2023/08/10 07:13:49;;;;;;;4.50;1.13;;;21.40;99.90;;;;;;4942911;28;20372;-76
2023/08/10 07:16:15;;;;;;;6.10;0.50;;;21.50;99.90;;;;;;4944941;28;20039;-76
2023/08/10 07:18:41;;;;;;;3.15;0.60;;;21.60;99.90;;;;;;4957531;28;20376;-76
2023/08/10 07:21:07;;;;;;;3.65;1.05;;;21.80;99.90;;;;;;4942242;28;20049;-76
2023/08/10 07:23:33;;;;;;;4.15;1.40;;;21.90;99.90;;;;;;4945193;28;20039;-76
2023/08/10 07:25:58;;;;;;;4.15;0.82;;;22.10;99.90;;;;;;4947418;28;20048;-76
2023/08/10 07:28:25;;;;;;;3.22;0.68;;;22.20;99.90;;;;;;4926915;29;20075;-77
2023/08/10 07:30:51;;;;;;;2.85;0.90;;;22.30;99.90;;;;;;4945458;28;20486;-77
2023/08/10 07:33:17;;;;;;;4.43;0.80;;;22.40;99.90;;;;;;4929554;29;20087;-76
2023/08/10 07:35:44;;;;;;;4.03;0.50;;;22.40;99.90;;;;;;4926781;28;20039;-77
2023/08/10 07:38:11;;;;;;;1.98;0.50;;;22.20;99.90;;;;;;4943231;28;20043;-75
2023/08/10 07:40:36;;;;;;;2.83;0.50;;;22.00;99.90;;;;;;4955709;28;20039;-77
2023/08/10 07:43:02;;;;;;;4.78;1.30;;;21.70;99.90;;;;;;4945809;28;20058;-76
2023/08/10 07:45:27;;;;;;;7.03;2.10;;;21.50;99.90;;;;;;4917314;28;20051;-78
2023/08/10 07:47:53;;;;;;;4.65;0.73;;;21.30;99.90;;;;;;4964785;28;20243;-76
2023/08/10 07:50:18;;;;;;;4.43;0.60;;;21.10;99.90;;;;;;4944978;28;20035;-75
2023/08/10 07:52:44;;;;;;;5.47;0.93;;;20.90;99.90;;;;;;4943133;28;20561;-77
2023/08/10 07:55:12;;;;;;;3.40;0.80;;;20.70;99.90;;;;;;4943678;29;20040;-77
2023/08/10 07:57:39;;;;;;;4.03;0.50;;;20.70;99.90;;;;;;4955786;28;20110;-78
2023/08/10 08:00:06;;;;;;;4.78;0.77;;;20.60;99.90;;;;;;4926612;29;20079;-78
2023/08/10 08:02:32;;;;;;;3.63;0.73;;;20.50;99.90;;;;;;4955481;28;20086;-78
2023/08/10 08:04:58;;;;;;;5.75;1.05;;;20.40;99.90;;;;;;4930630;29;20487;-77
2023/08/10 08:07:25;;;;;;;9.48;0.70;;;20.30;99.90;;;;;;4925070;29;20111;-77
2023/08/10 08:09:51;;;;;;;3.00;0.50;;;20.20;99.90;;;;;;4924027;29;20055;-76
2023/08/10 08:12:17;;;;;;;6.20;0.65;;;20.20;99.90;;;;;;4933621;29;20145;-77
2023/08/10 08:14:43;;;;;;;4.40;0.60;;;20.20;99.90;;;;;;4943702;28;20566;-77
2023/08/10 08:17:09;;;;;;;6.03;1.05;;;20.20;99.90;;;;;;4925632;28;20386;-77
2023/08/10 08:19:36;;;;;;;2.60;0.50;;;20.10;99.90;;;;;;4942943;28;20043;-76
2023/08/10 08:22:02;;;;;;;4.30;0.70;;;20.00;99.90;;;;;;4928612;29;20047;-76
2023/08/10 08:24:28;;;;;;;2.53;0.85;;;19.90;99.90;;;;;;4959156;28;20051;-76
2023/08/10 08:26:54;;;;;;;4.93;0.88;;;19.90;99.90;;;;;;4948169;28;20050;-76
2023/08/10 08:29:20;;;;;;;3.97;0.40;;;19.90;99.90;;;;;;4946591;29;20042;-76
2023/08/10 08:31:45;;;;;;;2.38;0.65;;;19.80;99.90;;;;;;4930702;29;20047;-77
2023/08/10 08:34:11;;;;;;;4.00;0.60;;;19.90;99.90;;;;;;4926040;29;20063;-76
2023/08/10 08:36:37;;;;;;;4.35;0.57;;;19.70;99.90;;;;;;4931758;29;20043;-76
2023/08/10 08:39:02;;;;;;;5.55;0.60;;;19.70;99.90;;;;;;4925593;29;20063;-76
2023/08/10 08:41:35;;;;;;;3.92;1.02;;;19.50;99.90;;;;;;4948934;28;20086;-76
2023/08/10 08:44:01;;;;;;;6.32;0.90;;;19.50;99.90;;;;;;4927491;29;20047;-76
2023/08/10 08:46:30;;;;;;;2.92;0.45;;;19.40;99.90;;;;;;4944748;28;20048;-76
2023/08/10 08:48:56;;;;;;;4.80;0.70;;;19.30;99.90;;;;;;4956961;28;20046;-76
2023/08/10 08:51:22;;;;;;;3.97;1.35;;;19.20;99.90;;;;;;4945938;28;20043;-76
2023/08/10 08:53:51;;;;;;;7.75;0.95;;;19.10;99.90;;;;;;4965183;28;20055;-76
2023/08/10 08:56:17;;;;;;;5.03;0.68;;;19.10;99.90;;;;;;4946734;28;20042;-77
2023/08/10 08:58:42;;;;;;;7.55;1.38;;;19.10;99.90;;;;;;4947250;28;20106;-76
2023/08/10 09:01:08;;;;;;;2.40;0.88;;;19.00;99.90;;;;;;4927395;29;20047;-76
2023/08/10 09:03:34;;;;;;;5.55;0.57;;;19.00;99.90;;;;;;4945726;28;20379;-76
2023/08/10 09:06:01;;;;;;;5.85;1.20;;;18.90;99.90;;;;;;4946844;29;20042;-76
2023/08/10 09:08:26;;;;;;;3.65;0.60;;;18.90;99.90;;;;;;4961201;28;20155;-76
2023/08/10 09:10:53;;;;;;;5.20;1.05;;;18.90;99.90;;;;;;4947225;28;21120;-76
2023/08/10 09:13:21;;;;;;;5.53;0.95;;;18.80;99.90;;;;;;4930979;29;20048;-76
2023/08/10 09:16:02;;;;;;;6.95;1.13;;;18.80;99.90;;;;;;4927622;28;20126;-76
2023/08/10 09:18:32;;;;;;;9.18;1.25;;;18.70;99.90;;;;;;4944053;29;20095;-76
2023/08/10 09:21:16;;;;;;;7.40;0.70;;;18.70;99.90;;;;;;4928921;29;20035;-76
2023/08/10 09:23:44;;;;;;;4.60;0.80;;;18.70;99.90;;;;;;4960634;28;20074;-76
2023/08/10 09:26:12;;;;;;;13.35;1.17;;;18.60;99.90;;;;;;4946695;28;20050;-76
2023/08/10 09:28:37;;;;;;;4.53;0.70;;;18.60;99.90;;;;;;4960827;28;20066;-75
2023/08/10 09:31:05;;;;;;;4.25;0.90;;;18.60;99.90;;;;;;4946742;28;20071;-76
2023/08/10 09:33:35;;;;;;;3.13;1.00;;;18.60;99.90;;;;;;4945264;29;20039;-75
2023/08/10 09:36:03;;;;;;;4.90;1.13;;;18.60;99.90;;;;;;4944755;28;20177;-75
2023/08/10 09:38:28;;;;;;;4.45;0.60;;;18.60;99.90;;;;;;4944705;28;20087;-75
2023/08/10 09:41:21;;;;;;;6.45;0.70;;;18.60;99.90;;;;;;4944156;28;20044;-76
2023/08/10 09:43:47;;;;;;;7.97;1.25;;;18.50;99.90;;;;;;4927179;29;20052;-75
2023/08/10 09:46:14;;;;;;;5.22;0.90;;;18.60;99.90;;;;;;4959568;28;20050;-75
2023/08/10 09:48:50;;;;;;;6.20;1.15;;;18.60;99.90;;;;;;4946046;28;20036;-76
2023/08/10 09:51:16;;;;;;;6.43;1.13;;;18.50;99.90;;;;;;4933311;29;20046;-76
2023/08/10 09:53:42;;;;;;;2.38;0.70;;;18.50;99.90;;;;;;4930715;29;20302;-75
2023/08/10 09:56:08;;;;;;;3.67;0.98;;;18.50;99.90;;;;;;4946247;28;20035;-76
2023/08/10 09:58:39;;;;;;;4.93;0.88;;;18.50;99.90;;;;;;4928180;28;20035;-75
2023/08/10 10:01:05;;;;;;;6.05;0.65;;;18.60;99.90;;;;;;4944561;28;20085;-75
2023/08/10 10:03:32;;;;;;;8.80;0.75;;;18.50;99.90;;;;;;4944748;28;20083;-76
2023/08/10 10:05:59;;;;;;;5.03;0.77;;;18.50;99.90;;;;;;4959966;28;20419;-76
2023/08/10 10:08:34;;;;;;;3.45;0.90;;;18.50;99.90;;;;;;4927539;29;20043;-75
2023/08/10 10:11:06;;;;;;;4.53;1.30;;;18.50;99.90;;;;;;4945033;28;20418;-76
2023/08/10 10:13:32;;;;;;;3.22;1.05;;;18.50;99.90;;;;;;4945497;28;20490;-75
2023/08/10 10:15:58;;;;;;;5.15;1.10;;;18.60;99.90;;;;;;4944306;28;20126;-75
2023/08/10 10:18:25;;;;;;;4.63;1.00;;;18.60;99.90;;;;;;4934664;29;20091;-75
2023/08/10 10:20:51;;;;;;;4.00;0.90;;;18.60;99.90;;;;;;4941151;29;20050;-75
2023/08/10 10:23:20;;;;;;;5.90;1.60;;;18.70;99.90;;;;;;4921938;28;20043;-75
2023/08/10 10:26:03;;;;;;;5.57;0.80;;;18.60;99.90;;;;;;4927416;29;20137;-75
2023/08/10 10:28:31;;;;;;;3.22;0.70;;;18.60;99.90;;;;;;4926853;29;20047;-75
2023/08/10 10:31:10;;;;;;;4.55;0.75;;;18.70;99.90;;;;;;4928450;29;20411;-75
2023/08/10 10:33:35;;;;;;;8.65;1.10;;;18.70;99.90;;;;;;4941501;28;20058;-75
2023/08/10 10:36:12;;;;;;;3.67;1.10;;;18.70;99.90;;;;;;4927100;29;20059;-75
2023/08/10 10:38:46;;;;;;;4.07;0.80;;;18.70;99.90;;;;;;4949236;28;20427;-76
2023/08/10 10:41:15;;;;;;;5.40;0.80;;;18.70;99.90;;;;;;4943415;28;20040;-75
2023/08/10 10:43:44;;;;;;;4.50;1.38;;;18.80;99.90;;;;;;4944184;28;20075;-75
2023/08/10 10:46:32;;;;;;;2.13;0.95;;;18.90;99.90;;;;;;4947190;28;20268;-75
2023/08/10 10:49:04;;;;;;;3.83;0.90;;;18.90;99.90;;;;;;4942456;28;20079;-76
2023/08/10 10:51:30;;;;;;;6.50;1.48;;;19.00;99.90;;;;;;4942908;28;20524;-75
2023/08/10 10:53:57;;;;;;;4.72;1.02;;;18.90;99.90;;;;;;4946718;28;20059;-75
2023/08/10 10:56:25;;;;;;;3.22;0.70;;;18.90;99.90;;;;;;4926143;29;20043;-75
2023/08/10 10:58:51;;;;;;;2.53;0.80;;;18.80;99.90;;;;;;4943890;28;20071;-75
2023/08/10 11:01:20;;;;;;;5.53;0.82;;;18.80;99.90;;;;;;4945989;28;20486;-75
2023/08/10 11:03:53;;;;;;;8.20;0.80;;;18.80;99.90;;;;;;4942939;28;20511;-75
2023/08/10 11:06:20;;;;;;;5.28;1.23;;;18.80;99.90;;;;;;4941887;28;20098;-75
2023/08/10 11:08:54;;;;;;;7.55;1.65;;;18.90;99.90;;;;;;4926298;29;20039;-75
2023/08/10 11:11:21;;;;;;;4.22;0.70;;;18.90;99.90;;;;;;4926610;28;20047;-75
2023/08/10 11:13:48;;;;;;;3.45;1.10;;;19.00;99.90;;;;;;4943928;28;20394;-75
2023/08/10 11:16:14;;;;;;;9.18;1.77;;;19.00;99.90;;;;;;4922708;29;20035;-76
2023/08/10 11:18:41;;;;;;;7.15;1.60;;;19.00;99.90;;;;;;4960806;28;20557;-76
2023/08/10 11:21:08;;;;;;;4.20;0.95;;;19.00;99.90;;;;;;4941012;28;20402;-76
2023/08/10 11:23:34;;;;;;;4.68;1.40;;;19.10;99.90;;;;;;4945731;28;20039;-75
2023/08/10 11:26:02;;;;;;;5.45;1.00;;;19.10;99.90;;;;;;4955254;28;20154;-76
2023/08/10 11:28:28;;;;;;;4.95;1.13;;;19.10;99.90;;;;;;4917935;28;20063;-75
2023/08/10 11:31:00;;;;;;;4.75;1.17;;;19.20;99.90;;;;;;4941926;28;20046;-76
2023/08/10 11:33:25;;;;;;;3.85;1.08;;;19.30;99.90;;;;;;4944549;28;20506;-76
2023/08/10 11:35:52;;;;;;;5.20;1.10;;;19.40;99.90;;;;;;4942931;28;20043;-76
2023/08/10 11:38:19;;;;;;;3.20;1.30;;;19.50;99.90;;;;;;4923274;29;20138;-76
2023/08/10 11:40:45;;;;;;;5.70;1.42;;;19.50;99.90;;;;;;4945713;28;20046;-76
2023/08/10 11:43:15;;;;;;;4.85;1.05;;;19.70;99.90;;;;;;4957933;28;20125;-76
2023/08/10 11:45:42;;;;;;;4.13;0.80;;;19.80;99.90;;;;;;4942969;28;20051;-76
2023/08/10 11:48:16;;;;;;;4.20;1.02;;;19.90;99.90;;;;;;4943776;28;20494;-76
2023/08/10 11:50:43;;;;;;;4.60;1.15;;;20.00;99.90;;;;;;4953330;28;20047;-76
2023/08/10 11:53:16;;;;;;;3.45;1.30;;;20.10;99.90;;;;;;4944017;28;20040;-76
2023/08/10 11:55:47;;;;;;;5.10;0.95;;;20.20;99.90;;;;;;4926115;28;20514;-76
2023/08/10 11:58:14;;;;;;;5.57;1.48;;;20.40;99.90;;;;;;4925495;29;20047;-76
2023/08/10 12:00:47;;;;;;;2.03;0.98;;;20.50;99.90;;;;;;4927683;29;20042;-76
2023/08/10 12:03:24;;;;;;;3.33;1.10;;;20.70;99.90;;;;;;4946744;28;20047;-76
2023/08/10 12:05:55;;;;;;;4.55;1.35;;;20.70;99.90;;;;;;4947103;28;20061;-76
2023/08/10 12:08:26;;;;;;;9.80;1.63;;;20.80;99.90;;;;;;4946922;28;20035;-76
2023/08/10 12:11:03;;;;;;;3.70;1.10;;;20.90;99.90;;;;;;4946881;28;20047;-76
2023/08/10 12:13:29;;;;;;;6.68;1.67;;;21.00;99.90;;;;;;4945496;28;20328;-75
2023/08/10 12:15:55;;;;;;;2.67;1.10;;;21.00;99.90;;;;;;4960785;28;20062;-76
2023/08/10 12:18:22;;;;;;;5.68;1.45;;;21.00;99.90;;;;;;4945675;28;20091;-76
2023/08/10 12:20:50;;;;;;;6.72;1.90;;;21.10;99.90;;;;;;4947301;28;20039;-76
2023/08/10 12:23:17;;;;;;;2.90;1.13;;;20.80;99.90;;;;;;4960701;28;20039;-76
2023/08/10 12:25:44;;;;;;;3.60;1.55;;;20.90;99.90;;;;;;4952947;28;20082;-76
2023/08/10 12:28:10;;;;;;;4.25;1.60;;;21.00;99.90;;;;;;4930194;29;20534;-76
2023/08/10 12:30:37;;;;;;;4.88;1.52;;;21.00;99.90;;;;;;4960144;28;20047;-76
2023/08/10 12:33:03;;;;;;;5.00;1.50;;;21.10;99.90;;;;;;4929952;28;20051;-76
2023/08/10 12:35:28;;;;;;;4.13;1.83;;;21.20;99.90;;;;;;4944851;28;20050;-76
2023/08/10 12:37:54;;;;;;;4.07;1.90;;;21.20;99.90;;;;;;4928956;28;20252;-76
2023/08/10 12:40:21;;;;;;;7.07;2.13;;;21.20;99.90;;;;;;4961057;28;20046;-76
2023/08/10 12:42:47;;;;;;;3.53;1.55;;;21.20;99.90;;;;;;4946624;28;20071;-76
2023/08/10 12:45:14;;;;;;;6.85;1.55;;;21.20;99.90;;;;;;4945834;28;20087;-76